createdAt,value
2022-10-26T00:02:36.366Z,41.79
2022-10-26T00:05:28.107Z,41.73
2022-10-26T00:08:17.656Z,41.78
2022-10-26T00:11:06.801Z,41.91
2022-10-26T00:13:57.528Z,42.00
2022-10-26T00:16:45.950Z,41.79
2022-10-26T00:19:38.165Z,41.95
2022-10-26T00:22:29.559Z,41.71
2022-10-26T00:25:18.202Z,41.78
2022-10-26T00:28:06.841Z,41.97
2022-10-26T00:30:55.285Z,41.88
2022-10-26T00:33:43.948Z,41.70
2022-10-26T00:36:34.166Z,41.78
2022-10-26T00:39:22.686Z,41.66
2022-10-26T00:42:12.951Z,41.86
2022-10-26T00:45:04.544Z,41.78
2022-10-26T00:47:55.349Z,41.94
2022-10-26T00:50:45.098Z,41.85
2022-10-26T00:53:35.320Z,41.88
2022-10-26T00:56:23.997Z,41.75
2022-10-26T00:59:13.412Z,41.61
2022-10-26T01:02:01.926Z,41.66
2022-10-26T01:04:50.660Z,41.67
2022-10-26T01:07:39.236Z,41.75
2022-10-26T01:10:29.564Z,42.02
2022-10-26T01:13:18.974Z,41.66
2022-10-26T01:16:28.695Z,41.93
2022-10-26T01:19:57.496Z,41.72
2022-10-26T01:22:50.439Z,41.51
2022-10-26T01:25:52.267Z,41.77
2022-10-26T01:28:53.927Z,41.54
2022-10-26T01:31:45.654Z,41.94
2022-10-26T01:34:36.492Z,41.37
2022-10-26T01:37:28.518Z,41.68
2022-10-26T01:40:22.169Z,41.57
2022-10-26T01:43:12.916Z,41.72
2022-10-26T01:46:02.020Z,41.97
2022-10-26T01:48:52.437Z,41.90
2022-10-26T01:51:42.882Z,41.68
2022-10-26T01:54:31.499Z,41.83
2022-10-26T01:57:21.868Z,41.81
2022-10-26T02:00:11.722Z,41.66
2022-10-26T02:03:04.470Z,41.65
2022-10-26T02:06:05.489Z,41.78
2022-10-26T02:09:00.246Z,41.50
2022-10-26T02:11:51.835Z,41.68
2022-10-26T02:14:47.777Z,41.38
2022-10-26T02:17:40.196Z,41.49
2022-10-26T02:20:30.285Z,41.73
2022-10-26T02:23:20.589Z,41.53
2022-10-26T02:26:10.911Z,41.62
2022-10-26T02:29:04.159Z,41.32
2022-10-26T02:31:53.262Z,41.59
2022-10-26T02:34:43.331Z,41.28
2022-10-26T02:37:32.173Z,41.38
2022-10-26T02:40:24.277Z,41.59
2022-10-26T02:43:15.050Z,41.30
2022-10-26T02:46:08.515Z,41.51
2022-10-26T02:48:57.532Z,41.68
2022-10-26T02:54:49.917Z,41.30
2022-10-26T02:57:40.402Z,41.67
2022-10-26T03:00:29.011Z,41.50
2022-10-26T03:03:17.964Z,41.18
2022-10-26T03:06:06.667Z,41.53
2022-10-26T03:08:55.169Z,41.20
2022-10-26T03:11:43.609Z,41.33
2022-10-26T03:14:33.449Z,41.28
2022-10-26T03:17:21.901Z,41.45
2022-10-26T03:20:11.624Z,41.38
2022-10-26T03:23:00.077Z,41.11
2022-10-26T03:25:48.537Z,41.12
2022-10-26T03:28:37.032Z,41.29
2022-10-26T03:31:29.568Z,41.26
2022-10-26T03:34:18.062Z,41.34
2022-10-26T03:37:06.647Z,41.45
2022-10-26T03:39:55.166Z,41.07
2022-10-26T03:42:45.848Z,41.04
2022-10-26T03:45:34.406Z,41.18
2022-10-26T03:48:24.302Z,41.14
2022-10-26T03:51:12.850Z,40.89
2022-10-26T03:54:01.285Z,41.30
2022-10-26T03:56:52.724Z,41.32
2022-10-26T03:59:43.504Z,41.17
2022-10-26T04:02:31.917Z,41.32
2022-10-26T04:05:21.829Z,41.37
2022-10-26T04:08:10.699Z,41.30
2022-10-26T04:11:02.323Z,41.01
2022-10-26T04:13:53.009Z,40.96
2022-10-26T04:16:41.475Z,41.27
2022-10-26T04:19:29.977Z,40.84
2022-10-26T04:22:19.878Z,41.01
2022-10-26T04:25:10.430Z,36.73
2022-10-26T04:27:58.962Z,35.46
2022-10-26T04:30:49.210Z,36.66
2022-10-26T04:33:37.721Z,37.69
2022-10-26T04:36:26.478Z,38.29
2022-10-26T04:39:16.331Z,39.27
2022-10-26T04:42:04.815Z,39.38
2022-10-26T04:44:53.228Z,39.52
2022-10-26T04:47:41.761Z,39.41
2022-10-26T04:50:30.329Z,39.70
2022-10-26T04:53:18.896Z,40.17
2022-10-26T04:56:09.209Z,40.09
2022-10-26T04:58:57.635Z,40.19
2022-10-26T05:01:52.569Z,40.58
2022-10-26T05:04:41.069Z,40.37
2022-10-26T05:07:29.634Z,40.61
2022-10-26T05:10:18.178Z,40.59
2022-10-26T05:13:08.173Z,40.38
2022-10-26T05:15:56.609Z,40.69
2022-10-26T05:18:47.048Z,40.79
2022-10-26T05:21:35.564Z,40.76
2022-10-26T05:24:24.213Z,40.81
2022-10-26T05:27:12.660Z,40.60
2022-10-26T05:30:02.635Z,40.81
2022-10-26T05:32:55.339Z,40.55
2022-10-26T05:35:44.023Z,40.79
2022-10-26T05:38:32.568Z,41.33
2022-10-26T05:41:21.014Z,41.61
2022-10-26T05:44:09.501Z,40.96
2022-10-26T05:46:59.301Z,40.92
2022-10-26T05:49:48.890Z,40.91
2022-10-26T05:52:40.882Z,41.13
2022-10-26T05:55:30.007Z,41.45
2022-10-26T05:58:19.144Z,41.33
2022-10-26T06:01:15.329Z,40.96
2022-10-26T06:04:19.014Z,41.13
2022-10-26T06:07:13.308Z,40.94
2022-10-26T06:10:02.314Z,40.83
2022-10-26T06:12:51.812Z,41.05
2022-10-26T06:15:49.522Z,41.05
2022-10-26T06:18:43.905Z,41.03
2022-10-26T06:21:43.393Z,41.02
2022-10-26T06:24:37.957Z,41.12
2022-10-26T06:27:35.958Z,41.22
2022-10-26T06:30:24.497Z,40.88
2022-10-26T06:33:24.971Z,40.86
2022-10-26T06:36:23.563Z,41.11
2022-10-26T06:39:14.232Z,40.94
2022-10-26T06:42:03.294Z,41.01
2022-10-26T06:44:52.356Z,40.79
2022-10-26T06:47:42.958Z,40.64
2022-10-26T06:50:36.062Z,40.11
2022-10-26T06:53:29.246Z,39.91
2022-10-26T06:56:19.189Z,39.45
2022-10-26T06:59:10.858Z,39.32
2022-10-26T07:02:02.865Z,39.00
2022-10-26T07:04:54.316Z,39.19
2022-10-26T07:07:44.371Z,39.84
2022-10-26T07:10:37.891Z,40.33
2022-10-26T07:13:27.695Z,40.09
2022-10-26T07:16:16.237Z,40.18
2022-10-26T07:19:04.661Z,40.18
2022-10-26T07:21:53.082Z,39.87
2022-10-26T07:24:41.718Z,40.12
2022-10-26T07:27:33.110Z,40.07
2022-10-26T07:30:22.883Z,40.33
2022-10-26T07:33:13.389Z,40.35
2022-10-26T07:36:01.774Z,40.19
2022-10-26T07:38:53.690Z,39.86
2022-10-26T07:41:42.173Z,39.37
2022-10-26T07:44:30.742Z,38.99
2022-10-26T07:47:20.472Z,39.25
2022-10-26T07:50:09.537Z,39.01
2022-10-26T07:52:59.863Z,39.51
2022-10-26T07:55:54.914Z,39.44
2022-10-26T07:58:43.379Z,39.86
2022-10-26T08:01:33.566Z,39.50
2022-10-26T08:04:23.474Z,39.49
2022-10-26T08:07:11.912Z,39.17
2022-10-26T08:10:00.781Z,39.26
2022-10-26T08:12:49.207Z,39.44
2022-10-26T08:15:37.880Z,39.79
2022-10-26T08:18:26.406Z,39.74
2022-10-26T08:21:21.855Z,39.75
2022-10-26T08:24:14.516Z,39.86
2022-10-26T08:27:09.076Z,39.42
2022-10-26T08:29:57.593Z,39.75
2022-10-26T08:32:46.161Z,39.92
2022-10-26T08:35:35.463Z,39.89
2022-10-26T08:38:25.581Z,39.62
2022-10-26T08:41:14.575Z,39.71
2022-10-26T08:44:06.481Z,39.54
2022-10-26T08:46:57.346Z,40.02
2022-10-26T08:49:49.987Z,39.37
2022-10-26T08:52:42.425Z,39.44
2022-10-26T08:55:35.370Z,39.47
2022-10-26T08:58:27.046Z,39.75
2022-10-26T09:01:15.651Z,39.42
2022-10-26T09:04:05.906Z,39.17
2022-10-26T09:06:59.509Z,39.18
2022-10-26T09:09:53.882Z,39.46
2022-10-26T09:12:49.319Z,39.39
2022-10-26T09:15:49.007Z,39.15
2022-10-26T09:21:45.004Z,39.12
2022-10-26T09:24:34.384Z,39.07
2022-10-26T09:27:26.578Z,38.82
2022-10-26T09:30:18.410Z,39.17
2022-10-26T09:33:14.926Z,39.30
2022-10-26T09:36:06.979Z,39.68
2022-10-26T09:38:58.428Z,39.31
2022-10-26T09:41:49.394Z,39.46
2022-10-26T09:44:40.562Z,39.16
2022-10-26T09:47:35.326Z,39.54
2022-10-26T09:50:27.906Z,39.17
2022-10-26T09:53:17.075Z,39.51
2022-10-26T09:56:07.688Z,39.33
2022-10-26T09:59:02.106Z,39.67
2022-10-26T10:01:50.820Z,39.48
2022-10-26T10:04:47.783Z,39.83
2022-10-26T10:07:39.850Z,39.81
2022-10-26T10:10:28.577Z,40.02
2022-10-26T10:13:18.077Z,39.88
2022-10-26T10:16:09.471Z,40.24
2022-10-26T10:18:58.944Z,40.17
2022-10-26T10:21:51.667Z,40.02
2022-10-26T10:24:42.801Z,39.77
2022-10-26T10:27:33.412Z,39.78
2022-10-26T10:30:23.503Z,39.77
2022-10-26T10:33:13.013Z,40.24
2022-10-26T10:36:01.760Z,39.95
2022-10-26T10:38:52.889Z,40.01
2022-10-26T10:41:41.268Z,39.70
2022-10-26T10:44:31.641Z,40.01
2022-10-26T10:47:24.267Z,39.74
2022-10-26T10:50:20.602Z,39.83
2022-10-26T10:53:18.353Z,39.62
2022-10-26T10:56:35.250Z,40.07
2022-10-26T10:59:49.301Z,40.24
2022-10-26T11:02:59.375Z,39.94
2022-10-26T11:06:06.074Z,39.83
2022-10-26T11:08:58.819Z,40.32
2022-10-26T11:11:50.462Z,40.01
2022-10-26T11:14:43.275Z,40.32
2022-10-26T11:17:39.817Z,40.16
2022-10-26T11:20:29.937Z,40.07
2022-10-26T11:23:22.286Z,39.76
2022-10-26T11:26:14.144Z,40.23
2022-10-26T11:29:07.295Z,40.38
2022-10-26T11:32:00.134Z,40.29
2022-10-26T11:34:52.604Z,40.09
2022-10-26T11:37:46.019Z,40.33
2022-10-26T11:40:41.840Z,40.32
2022-10-26T11:43:37.957Z,40.12
2022-10-26T11:46:31.480Z,40.25
2022-10-26T11:49:24.278Z,40.40
2022-10-26T11:52:17.747Z,40.40
2022-10-26T11:55:06.943Z,40.45
2022-10-26T11:57:56.050Z,40.20
2022-10-26T12:00:49.398Z,40.30
2022-10-26T12:03:45.577Z,40.14
2022-10-26T12:06:35.206Z,40.18
2022-10-26T12:09:25.846Z,40.36
2022-10-26T12:12:20.997Z,40.16
2022-10-26T12:15:19.727Z,40.15
2022-10-26T12:18:16.163Z,40.05
2022-10-26T12:21:07.820Z,40.00
2022-10-26T12:23:57.803Z,40.25
2022-10-26T12:26:53.876Z,40.22
2022-10-26T12:30:24.951Z,40.19
2022-10-26T12:33:33.547Z,40.18
2022-10-26T12:36:51.649Z,40.33
2022-10-26T12:39:41.372Z,40.28
2022-10-26T12:42:31.096Z,40.54
2022-10-26T12:45:21.709Z,40.42
2022-10-26T12:48:38.764Z,40.57
2022-10-26T12:51:44.106Z,40.28
2022-10-26T12:54:40.247Z,40.11
2022-10-26T12:57:33.255Z,40.09
2022-10-26T13:00:25.142Z,40.19
2022-10-26T13:03:23.736Z,40.41
2022-10-26T13:06:22.425Z,40.45
2022-10-26T13:09:19.155Z,40.49
2022-10-26T13:12:10.398Z,40.49
2022-10-26T13:15:05.545Z,40.96
2022-10-26T13:17:59.876Z,40.55
2022-10-26T13:20:55.229Z,40.45
2022-10-26T13:23:45.794Z,40.68
2022-10-26T13:27:13.029Z,40.57
2022-10-26T13:30:44.435Z,40.66
2022-10-26T13:33:38.821Z,40.92
2022-10-26T13:36:32.836Z,40.51
2022-10-26T13:39:23.539Z,40.05
2022-10-26T13:42:17.077Z,40.06
2022-10-26T13:45:10.160Z,39.85
2022-10-26T13:48:03.173Z,40.16
2022-10-26T13:50:54.308Z,40.17
2022-10-26T13:53:46.657Z,40.68
2022-10-26T13:56:36.781Z,40.64
2022-10-26T13:59:26.494Z,40.76
2022-10-26T14:02:20.826Z,40.61
2022-10-26T14:05:14.406Z,40.12
2022-10-26T14:08:02.952Z,39.61
2022-10-26T14:10:55.082Z,39.47
2022-10-26T14:13:43.675Z,39.21
2022-10-26T14:16:33.632Z,39.58
2022-10-26T14:19:24.298Z,39.76
2022-10-26T14:22:23.115Z,39.83
2022-10-26T14:25:26.710Z,39.49
2022-10-26T14:28:26.088Z,39.48
2022-10-26T14:31:18.086Z,39.57
2022-10-26T14:34:08.850Z,39.23
2022-10-26T14:36:59.766Z,39.72
2022-10-26T14:39:49.753Z,39.92
2022-10-26T14:42:41.304Z,40.18
2022-10-26T14:45:50.339Z,40.28
2022-10-26T14:48:41.911Z,40.26
2022-10-26T14:51:31.443Z,40.78
2022-10-26T14:54:22.165Z,40.38
2022-10-26T14:57:32.369Z,40.44
2022-10-26T15:00:23.916Z,40.48
2022-10-26T15:03:17.978Z,40.74
2022-10-26T15:06:30.406Z,40.61
2022-10-26T15:09:43.634Z,40.86
2022-10-26T15:12:36.343Z,40.51
2022-10-26T15:15:25.652Z,40.51
2022-10-26T15:18:21.038Z,40.84
2022-10-26T15:21:23.185Z,40.86
2022-10-26T15:24:31.020Z,41.03
2022-10-26T15:27:22.022Z,40.76
2022-10-26T15:30:19.368Z,41.05
2022-10-26T15:33:21.961Z,41.02
2022-10-26T15:36:18.238Z,40.80
2022-10-26T15:39:06.842Z,40.76
2022-10-26T15:41:55.918Z,41.14
2022-10-26T15:44:44.429Z,41.06
2022-10-26T15:47:36.654Z,41.07
2022-10-26T15:50:27.166Z,41.32
2022-10-26T15:53:20.039Z,40.98
2022-10-26T15:56:15.539Z,40.82
2022-10-26T15:59:04.046Z,41.13
2022-10-26T16:01:53.121Z,41.21
2022-10-26T16:04:43.151Z,41.26
2022-10-26T16:07:31.695Z,41.39
2022-10-26T16:10:23.434Z,41.41
2022-10-26T16:13:13.937Z,41.52
2022-10-26T16:16:02.895Z,41.25
2022-10-26T16:19:06.091Z,41.21
2022-10-26T16:22:02.432Z,41.42
2022-10-26T16:24:50.974Z,41.17
2022-10-26T16:27:39.549Z,41.30
2022-10-26T16:30:30.395Z,41.20
2022-10-26T16:33:19.123Z,41.27
2022-10-26T16:36:08.614Z,41.62
2022-10-26T16:38:58.656Z,41.25
2022-10-26T16:41:47.162Z,41.21
2022-10-26T16:44:36.438Z,40.99
2022-10-26T16:47:25.108Z,40.71
2022-10-26T16:50:16.884Z,40.76
2022-10-26T16:53:05.477Z,40.62
2022-10-26T16:55:55.271Z,40.47
2022-10-26T16:58:43.738Z,40.53
2022-10-26T17:01:32.228Z,40.44
2022-10-26T17:04:20.875Z,40.17
2022-10-26T17:07:09.351Z,40.04
2022-10-26T17:09:57.886Z,40.36
2022-10-26T17:12:47.838Z,40.58
2022-10-26T17:15:36.574Z,41.04
2022-10-26T17:18:25.036Z,41.00
2022-10-26T17:21:15.469Z,41.74
2022-10-26T17:24:04.055Z,41.67
2022-10-26T17:26:52.427Z,41.40
2022-10-26T17:29:42.287Z,41.80
2022-10-26T17:32:32.015Z,41.36
2022-10-26T17:35:20.517Z,41.20
2022-10-26T17:38:08.976Z,41.26
2022-10-26T17:41:01.936Z,40.97
2022-10-26T17:43:51.083Z,41.12
2022-10-26T17:46:40.948Z,41.35
2022-10-26T17:49:31.213Z,41.52
2022-10-26T17:52:24.656Z,41.06
2022-10-26T17:55:13.121Z,41.69
2022-10-26T17:58:01.576Z,41.71
2022-10-26T18:00:50.368Z,41.88
2022-10-26T18:03:40.771Z,41.40
2022-10-26T18:06:29.565Z,41.07
2022-10-26T18:09:18.114Z,41.09
2022-10-26T18:12:07.339Z,41.24
2022-10-26T18:14:55.732Z,41.00
2022-10-26T18:17:45.157Z,41.37
2022-10-26T18:20:35.221Z,41.32
2022-10-26T18:23:23.667Z,41.38
2022-10-26T18:26:15.796Z,41.31
2022-10-26T18:29:06.149Z,40.92
2022-10-26T18:31:54.520Z,40.71
2022-10-26T18:34:43.140Z,40.89
2022-10-26T18:37:32.915Z,41.05
2022-10-26T18:40:21.488Z,41.24
2022-10-26T18:43:09.960Z,41.15
2022-10-26T18:46:08.926Z,41.53
2022-10-26T18:48:58.076Z,41.46
2022-10-26T18:51:46.559Z,41.48
2022-10-26T18:54:36.416Z,41.07
2022-10-26T18:57:27.018Z,41.10
2022-10-26T19:00:16.327Z,41.21
2022-10-26T19:03:06.395Z,40.94
2022-10-26T19:05:54.833Z,41.27
2022-10-26T19:08:44.233Z,41.05
2022-10-26T19:11:35.638Z,40.94
2022-10-26T19:14:24.043Z,42.01
2022-10-26T19:17:12.432Z,41.31
2022-10-26T19:20:00.934Z,41.63
2022-10-26T19:22:49.605Z,41.27
2022-10-26T19:25:38.264Z,41.41
2022-10-26T19:28:28.326Z,41.70
2022-10-26T19:31:17.326Z,41.40
2022-10-26T19:34:07.994Z,40.97
2022-10-26T19:36:56.625Z,40.89
2022-10-26T19:39:47.198Z,40.76
2022-10-26T19:42:35.568Z,40.51
2022-10-26T19:45:25.408Z,41.03
2022-10-26T19:48:13.860Z,41.45
2022-10-26T19:51:02.480Z,41.48
2022-10-26T19:53:51.212Z,41.12
2022-10-26T19:56:39.829Z,40.94
2022-10-26T19:59:28.196Z,40.48
2022-10-26T20:02:18.164Z,40.66
2022-10-26T20:05:07.417Z,40.76
2022-10-26T20:07:55.960Z,40.68
2022-10-26T20:10:45.635Z,41.39
2022-10-26T20:13:34.939Z,40.54
2022-10-26T20:16:23.375Z,41.01
2022-10-26T20:19:13.217Z,41.10
2022-10-26T20:22:01.768Z,41.17
2022-10-26T20:24:50.230Z,41.11
2022-10-26T20:27:41.765Z,41.57
2022-10-26T20:30:33.674Z,42.17
2022-10-26T20:33:22.202Z,41.53
2022-10-26T20:36:12.251Z,41.76
2022-10-26T20:39:01.281Z,41.85
2022-10-26T20:41:50.615Z,41.89
2022-10-26T20:44:43.183Z,42.29
2022-10-26T20:47:32.369Z,42.55
2022-10-26T20:50:21.703Z,42.73
2022-10-26T20:53:16.241Z,42.81
2022-10-26T20:56:08.407Z,42.55
2022-10-26T20:58:58.205Z,42.56
2022-10-26T21:01:46.863Z,42.22
2022-10-26T21:04:35.311Z,42.17
2022-10-26T21:07:23.851Z,42.41
2022-10-26T21:10:13.655Z,42.92
2022-10-26T21:13:02.172Z,42.95
2022-10-26T21:15:50.673Z,43.14
2022-10-26T21:18:39.105Z,42.91
2022-10-26T21:21:27.568Z,43.15
2022-10-26T21:24:15.973Z,42.89
2022-10-26T21:27:05.799Z,43.37
2022-10-26T21:29:54.250Z,42.83
2022-10-26T21:32:42.769Z,43.30
2022-10-26T21:35:31.205Z,43.20
2022-10-26T21:38:26.244Z,44.08
2022-10-26T21:41:15.903Z,43.98
2022-10-26T21:44:09.911Z,43.84
2022-10-26T21:47:05.788Z,44.10
2022-10-26T21:49:54.277Z,43.99
2022-10-26T21:52:42.829Z,44.31
2022-10-26T21:55:31.367Z,44.36
2022-10-26T21:58:20.005Z,44.13
2022-10-26T22:01:11.157Z,44.17
2022-10-26T22:03:59.873Z,44.19
2022-10-26T22:06:49.381Z,44.47
2022-10-26T22:09:45.026Z,44.33
2022-10-26T22:12:46.437Z,44.39
2022-10-26T22:15:34.990Z,44.38
2022-10-26T22:18:24.751Z,44.38
2022-10-26T22:21:13.906Z,44.34
2022-10-26T22:24:02.695Z,44.39
2022-10-26T22:26:51.120Z,44.47
2022-10-26T22:29:39.621Z,44.57
2022-10-26T22:32:28.141Z,44.51
2022-10-26T22:35:35.842Z,44.59
2022-10-26T22:38:24.410Z,44.41
2022-10-26T22:41:13.333Z,44.41
2022-10-26T22:44:01.834Z,44.40
2022-10-26T22:46:50.514Z,44.26
2022-10-26T22:49:39.094Z,44.45
2022-10-26T22:52:28.832Z,44.50
2022-10-26T22:55:17.505Z,44.46
2022-10-26T22:58:06.035Z,44.70
2022-10-26T23:00:54.598Z,44.53
2022-10-26T23:03:43.568Z,44.65
2022-10-26T23:06:33.255Z,44.57
2022-10-26T23:09:23.091Z,44.73
2022-10-26T23:12:11.607Z,44.59
2022-10-26T23:15:00.197Z,44.59
2022-10-26T23:17:49.353Z,44.56
2022-10-26T23:20:38.086Z,44.46
2022-10-26T23:23:26.540Z,44.53
2022-10-26T23:26:17.545Z,44.41
2022-10-26T23:29:06.049Z,44.70
2022-10-26T23:31:54.473Z,44.66
2022-10-26T23:34:42.889Z,44.60
2022-10-26T23:37:31.369Z,44.72
2022-10-26T23:40:22.106Z,44.82
2022-10-26T23:43:11.946Z,44.63
2022-10-26T23:46:00.504Z,44.72
2022-10-26T23:48:49.038Z,44.92
2022-10-26T23:51:37.515Z,44.85
2022-10-26T23:54:26.073Z,44.71
2022-10-26T23:57:14.574Z,44.66
